sensor_id;sensor_type;location;lat;lon;timestamp;P1;durP1;ratioP1;P2;durP2;ratioP2
75459;SDS011;64039;53.060;9.342;2022-10-31T00:00:03;19.88;;;11.93;;
75459;SDS011;64039;53.060;9.342;2022-10-31T00:02:31;24.88;;;12.18;;
75459;SDS011;64039;53.060;9.342;2022-10-31T00:04:57;27.05;;;12.20;;
75459;SDS011;64039;53.060;9.342;2022-10-31T00:07:22;28.08;;;13.85;;
75459;SDS011;64039;53.060;9.342;2022-10-31T00:09:47;28.73;;;14.30;;
75459;SDS011;64039;53.060;9.342;2022-10-31T00:12:13;26.92;;;12.95;;
75459;SDS011;64039;53.060;9.342;2022-10-31T00:14:38;34.55;;;15.65;;
75459;SDS011;64039;53.060;9.342;2022-10-31T00:17:03;25.65;;;14.23;;
75459;SDS011;64039;53.060;9.342;2022-10-31T00:19:29;30.95;;;15.85;;
75459;SDS011;64039;53.060;9.342;2022-10-31T00:21:54;27.33;;;15.90;;
75459;SDS011;64039;53.060;9.342;2022-10-31T00:24:20;25.45;;;14.75;;
75459;SDS011;64039;53.060;9.342;2022-10-31T00:26:45;32.10;;;15.15;;
75459;SDS011;64039;53.060;9.342;2022-10-31T00:29:10;34.03;;;15.48;;
75459;SDS011;64039;53.060;9.342;2022-10-31T00:31:37;28.75;;;14.48;;
75459;SDS011;64039;53.060;9.342;2022-10-31T00:34:03;28.08;;;14.65;;
75459;SDS011;64039;53.060;9.342;2022-10-31T00:36:28;33.03;;;15.85;;
75459;SDS011;64039;53.060;9.342;2022-10-31T00:38:54;33.15;;;17.58;;
75459;SDS011;64039;53.060;9.342;2022-10-31T00:41:19;35.67;;;17.15;;
75459;SDS011;64039;53.060;9.342;2022-10-31T00:43:45;33.63;;;18.02;;
75459;SDS011;64039;53.060;9.342;2022-10-31T00:46:11;32.95;;;17.67;;
75459;SDS011;64039;53.060;9.342;2022-10-31T00:48:37;34.35;;;18.45;;
75459;SDS011;64039;53.060;9.342;2022-10-31T00:51:03;33.15;;;17.85;;
75459;SDS011;64039;53.060;9.342;2022-10-31T00:53:28;30.80;;;16.40;;
75459;SDS011;64039;53.060;9.342;2022-10-31T00:55:54;31.92;;;16.15;;
75459;SDS011;64039;53.060;9.342;2022-10-31T00:58:19;34.60;;;19.40;;
75459;SDS011;64039;53.060;9.342;2022-10-31T01:00:49;32.00;;;16.67;;
75459;SDS011;64039;53.060;9.342;2022-10-31T01:03:23;42.10;;;19.83;;
75459;SDS011;64039;53.060;9.342;2022-10-31T01:06:24;32.35;;;16.33;;
75459;SDS011;64039;53.060;9.342;2022-10-31T01:08:42;27.70;;;14.13;;
75459;SDS011;64039;53.060;9.342;2022-10-31T01:11:10;37.95;;;17.85;;
75459;SDS011;64039;53.060;9.342;2022-10-31T01:13:43;33.20;;;17.90;;
75459;SDS011;64039;53.060;9.342;2022-10-31T01:16:14;40.55;;;20.75;;
75459;SDS011;64039;53.060;9.342;2022-10-31T01:18:41;30.80;;;16.55;;
75459;SDS011;64039;53.060;9.342;2022-10-31T01:21:08;31.00;;;18.30;;
75459;SDS011;64039;53.060;9.342;2022-10-31T01:23:35;32.78;;;18.92;;
75459;SDS011;64039;53.060;9.342;2022-10-31T01:28:35;30.85;;;16.17;;
75459;SDS011;64039;53.060;9.342;2022-10-31T01:31:03;34.88;;;19.02;;
75459;SDS011;64039;53.060;9.342;2022-10-31T01:33:30;34.13;;;18.08;;
75459;SDS011;64039;53.060;9.342;2022-10-31T01:35:55;33.42;;;16.88;;
75459;SDS011;64039;53.060;9.342;2022-10-31T01:38:20;35.58;;;17.17;;
75459;SDS011;64039;53.060;9.342;2022-10-31T01:40:47;32.28;;;17.13;;
75459;SDS011;64039;53.060;9.342;2022-10-31T01:43:12;34.65;;;17.40;;
75459;SDS011;64039;53.060;9.342;2022-10-31T01:45:39;35.95;;;17.95;;
75459;SDS011;64039;53.060;9.342;2022-10-31T01:48:07;32.65;;;17.52;;
75459;SDS011;64039;53.060;9.342;2022-10-31T01:50:40;34.25;;;20.02;;
75459;SDS011;64039;53.060;9.342;2022-10-31T01:53:09;35.10;;;19.20;;
75459;SDS011;64039;53.060;9.342;2022-10-31T01:55:38;32.67;;;18.30;;
75459;SDS011;64039;53.060;9.342;2022-10-31T01:58:14;29.83;;;17.73;;
75459;SDS011;64039;53.060;9.342;2022-10-31T02:00:42;34.67;;;18.55;;
75459;SDS011;64039;53.060;9.342;2022-10-31T02:03:10;32.10;;;18.10;;
75459;SDS011;64039;53.060;9.342;2022-10-31T02:05:36;31.48;;;17.73;;
75459;SDS011;64039;53.060;9.342;2022-10-31T02:08:06;34.50;;;18.92;;
75459;SDS011;64039;53.060;9.342;2022-10-31T02:10:38;29.05;;;16.92;;
75459;SDS011;64039;53.060;9.342;2022-10-31T02:13:06;37.10;;;19.70;;
75459;SDS011;64039;53.060;9.342;2022-10-31T02:15:33;28.02;;;18.02;;
75459;SDS011;64039;53.060;9.342;2022-10-31T02:18:01;29.98;;;17.35;;
75459;SDS011;64039;53.060;9.342;2022-10-31T02:20:29;34.92;;;18.40;;
75459;SDS011;64039;53.060;9.342;2022-10-31T02:34:22;28.90;;;16.55;;
75459;SDS011;64039;53.060;9.342;2022-10-31T02:37:25;33.60;;;15.98;;
75459;SDS011;64039;53.060;9.342;2022-10-31T02:40:03;28.10;;;15.90;;
75459;SDS011;64039;53.060;9.342;2022-10-31T02:42:39;30.83;;;16.90;;
75459;SDS011;64039;53.060;9.342;2022-10-31T02:45:29;29.95;;;17.30;;
75459;SDS011;64039;53.060;9.342;2022-10-31T02:48:00;33.20;;;18.45;;
75459;SDS011;64039;53.060;9.342;2022-10-31T02:50:32;32.90;;;18.10;;
75459;SDS011;64039;53.060;9.342;2022-10-31T02:53:02;34.97;;;18.83;;
75459;SDS011;64039;53.060;9.342;2022-10-31T02:57:54;36.25;;;20.30;;
75459;SDS011;64039;53.060;9.342;2022-10-31T03:00:27;37.42;;;20.60;;
75459;SDS011;64039;53.060;9.342;2022-10-31T03:08:21;30.90;;;17.50;;
75459;SDS011;64039;53.060;9.342;2022-10-31T03:11:00;34.90;;;19.33;;
75459;SDS011;64039;53.060;9.342;2022-10-31T03:13:35;33.03;;;18.92;;
75459;SDS011;64039;53.060;9.342;2022-10-31T03:19:03;35.08;;;19.92;;
75459;SDS011;64039;53.060;9.342;2022-10-31T03:21:43;30.33;;;18.13;;
75459;SDS011;64039;53.060;9.342;2022-10-31T03:24:11;30.38;;;17.98;;
75459;SDS011;64039;53.060;9.342;2022-10-31T03:26:44;32.97;;;18.35;;
75459;SDS011;64039;53.060;9.342;2022-10-31T03:29:15;42.13;;;21.20;;
75459;SDS011;64039;53.060;9.342;2022-10-31T03:31:54;33.58;;;17.98;;
75459;SDS011;64039;53.060;9.342;2022-10-31T03:34:23;35.35;;;18.00;;
75459;SDS011;64039;53.060;9.342;2022-10-31T03:36:49;37.00;;;18.42;;
75459;SDS011;64039;53.060;9.342;2022-10-31T03:39:18;35.80;;;19.50;;
75459;SDS011;64039;53.060;9.342;2022-10-31T03:41:52;33.92;;;18.80;;
75459;SDS011;64039;53.060;9.342;2022-10-31T03:44:21;35.33;;;19.15;;
75459;SDS011;64039;53.060;9.342;2022-10-31T03:46:49;38.60;;;18.92;;
75459;SDS011;64039;53.060;9.342;2022-10-31T03:49:15;36.90;;;19.40;;
75459;SDS011;64039;53.060;9.342;2022-10-31T03:51:43;35.22;;;19.27;;
75459;SDS011;64039;53.060;9.342;2022-10-31T03:56:48;34.22;;;17.30;;
75459;SDS011;64039;53.060;9.342;2022-10-31T03:59:27;32.67;;;18.02;;
75459;SDS011;64039;53.060;9.342;2022-10-31T04:01:59;30.52;;;17.15;;
75459;SDS011;64039;53.060;9.342;2022-10-31T04:04:30;24.27;;;15.27;;
75459;SDS011;64039;53.060;9.342;2022-10-31T04:06:57;25.38;;;14.32;;
75459;SDS011;64039;53.060;9.342;2022-10-31T04:09:25;25.38;;;13.18;;
75459;SDS011;64039;53.060;9.342;2022-10-31T04:11:53;25.50;;;15.02;;
75459;SDS011;64039;53.060;9.342;2022-10-31T04:14:25;25.15;;;14.45;;
75459;SDS011;64039;53.060;9.342;2022-10-31T04:16:52;19.98;;;12.20;;
75459;SDS011;64039;53.060;9.342;2022-10-31T04:19:19;22.90;;;11.63;;
75459;SDS011;64039;53.060;9.342;2022-10-31T04:21:44;20.98;;;12.48;;
75459;SDS011;64039;53.060;9.342;2022-10-31T04:24:10;29.38;;;11.85;;
75459;SDS011;64039;53.060;9.342;2022-10-31T04:26:35;22.50;;;12.02;;
75459;SDS011;64039;53.060;9.342;2022-10-31T04:29:01;20.27;;;11.82;;
75459;SDS011;64039;53.060;9.342;2022-10-31T04:31:26;24.00;;;12.30;;
75459;SDS011;64039;53.060;9.342;2022-10-31T04:33:52;24.05;;;15.00;;
75459;SDS011;64039;53.060;9.342;2022-10-31T04:36:17;29.98;;;13.55;;
75459;SDS011;64039;53.060;9.342;2022-10-31T04:38:43;29.25;;;16.55;;
75459;SDS011;64039;53.060;9.342;2022-10-31T04:41:08;23.77;;;13.43;;
75459;SDS011;64039;53.060;9.342;2022-10-31T04:43:34;24.80;;;12.98;;
75459;SDS011;64039;53.060;9.342;2022-10-31T04:45:59;27.17;;;15.90;;
75459;SDS011;64039;53.060;9.342;2022-10-31T04:48:25;31.95;;;16.67;;
75459;SDS011;64039;53.060;9.342;2022-10-31T04:50:50;25.30;;;12.85;;
75459;SDS011;64039;53.060;9.342;2022-10-31T04:53:16;25.58;;;11.43;;
75459;SDS011;64039;53.060;9.342;2022-10-31T04:55:41;19.05;;;10.38;;
75459;SDS011;64039;53.060;9.342;2022-10-31T04:58:06;15.55;;;9.27;;
75459;SDS011;64039;53.060;9.342;2022-10-31T05:00:32;14.40;;;8.45;;
75459;SDS011;64039;53.060;9.342;2022-10-31T05:02:57;18.60;;;9.70;;
75459;SDS011;64039;53.060;9.342;2022-10-31T05:05:29;14.25;;;9.13;;
75459;SDS011;64039;53.060;9.342;2022-10-31T05:07:56;14.40;;;8.18;;
75459;SDS011;64039;53.060;9.342;2022-10-31T05:10:22;16.00;;;9.32;;
75459;SDS011;64039;53.060;9.342;2022-10-31T05:12:52;16.60;;;9.82;;
75459;SDS011;64039;53.060;9.342;2022-10-31T05:15:20;16.15;;;9.35;;
75459;SDS011;64039;53.060;9.342;2022-10-31T05:17:47;14.13;;;9.23;;
75459;SDS011;64039;53.060;9.342;2022-10-31T05:20:14;15.48;;;8.63;;
75459;SDS011;64039;53.060;9.342;2022-10-31T05:22:45;12.57;;;8.55;;
75459;SDS011;64039;53.060;9.342;2022-10-31T05:25:11;17.60;;;10.30;;
75459;SDS011;64039;53.060;9.342;2022-10-31T05:27:38;11.85;;;8.50;;
75459;SDS011;64039;53.060;9.342;2022-10-31T05:30:05;14.05;;;9.40;;
75459;SDS011;64039;53.060;9.342;2022-10-31T05:32:36;11.40;;;7.85;;
75459;SDS011;64039;53.060;9.342;2022-10-31T05:35:02;10.68;;;8.00;;
75459;SDS011;64039;53.060;9.342;2022-10-31T05:37:28;10.68;;;7.60;;
75459;SDS011;64039;53.060;9.342;2022-10-31T05:39:53;15.05;;;8.10;;
75459;SDS011;64039;53.060;9.342;2022-10-31T05:42:19;10.57;;;7.85;;
75459;SDS011;64039;53.060;9.342;2022-10-31T05:44:44;11.95;;;7.93;;
75459;SDS011;64039;53.060;9.342;2022-10-31T05:47:09;10.45;;;7.38;;
75459;SDS011;64039;53.060;9.342;2022-10-31T05:49:35;17.40;;;9.55;;
75459;SDS011;64039;53.060;9.342;2022-10-31T05:52:00;18.88;;;9.40;;
75459;SDS011;64039;53.060;9.342;2022-10-31T05:54:25;13.80;;;9.27;;
75459;SDS011;64039;53.060;9.342;2022-10-31T05:56:51;11.38;;;8.13;;
75459;SDS011;64039;53.060;9.342;2022-10-31T05:59:16;10.15;;;7.97;;
75459;SDS011;64039;53.060;9.342;2022-10-31T06:01:42;11.68;;;8.93;;
75459;SDS011;64039;53.060;9.342;2022-10-31T06:04:07;13.68;;;9.60;;
75459;SDS011;64039;53.060;9.342;2022-10-31T06:06:32;21.30;;;12.70;;
75459;SDS011;64039;53.060;9.342;2022-10-31T06:08:58;19.92;;;12.40;;
75459;SDS011;64039;53.060;9.342;2022-10-31T06:11:23;26.45;;;13.90;;
75459;SDS011;64039;53.060;9.342;2022-10-31T06:13:49;21.25;;;12.60;;
75459;SDS011;64039;53.060;9.342;2022-10-31T06:16:14;20.98;;;12.70;;
75459;SDS011;64039;53.060;9.342;2022-10-31T06:18:39;20.90;;;12.00;;
75459;SDS011;64039;53.060;9.342;2022-10-31T06:21:05;21.75;;;11.75;;
75459;SDS011;64039;53.060;9.342;2022-10-31T06:23:30;26.33;;;13.27;;
75459;SDS011;64039;53.060;9.342;2022-10-31T06:25:55;21.83;;;12.93;;
75459;SDS011;64039;53.060;9.342;2022-10-31T06:28:21;21.90;;;12.68;;
75459;SDS011;64039;53.060;9.342;2022-10-31T06:30:46;25.55;;;13.32;;
75459;SDS011;64039;53.060;9.342;2022-10-31T06:33:12;20.02;;;12.93;;
75459;SDS011;64039;53.060;9.342;2022-10-31T06:35:37;22.95;;;12.85;;
75459;SDS011;64039;53.060;9.342;2022-10-31T06:38:02;28.38;;;13.85;;
75459;SDS011;64039;53.060;9.342;2022-10-31T06:40:28;25.08;;;14.70;;
75459;SDS011;64039;53.060;9.342;2022-10-31T06:42:57;18.40;;;12.23;;
75459;SDS011;64039;53.060;9.342;2022-10-31T06:45:26;26.27;;;15.20;;
75459;SDS011;64039;53.060;9.342;2022-10-31T06:47:52;21.98;;;15.30;;
75459;SDS011;64039;53.060;9.342;2022-10-31T06:50:18;21.13;;;14.88;;
75459;SDS011;64039;53.060;9.342;2022-10-31T06:52:49;22.15;;;15.45;;
75459;SDS011;64039;53.060;9.342;2022-10-31T06:55:15;21.65;;;14.88;;
75459;SDS011;64039;53.060;9.342;2022-10-31T06:57:41;23.15;;;15.77;;
75459;SDS011;64039;53.060;9.342;2022-10-31T07:00:07;23.13;;;16.40;;
75459;SDS011;64039;53.060;9.342;2022-10-31T07:02:33;23.30;;;14.80;;
75459;SDS011;64039;53.060;9.342;2022-10-31T07:04:58;23.30;;;14.43;;
75459;SDS011;64039;53.060;9.342;2022-10-31T07:07:24;20.20;;;13.88;;
75459;SDS011;64039;53.060;9.342;2022-10-31T07:09:49;17.52;;;13.15;;
75459;SDS011;64039;53.060;9.342;2022-10-31T07:12:15;19.80;;;13.73;;
75459;SDS011;64039;53.060;9.342;2022-10-31T07:14:41;18.13;;;13.60;;
75459;SDS011;64039;53.060;9.342;2022-10-31T07:17:07;19.42;;;14.45;;
75459;SDS011;64039;53.060;9.342;2022-10-31T07:19:32;19.77;;;13.57;;
75459;SDS011;64039;53.060;9.342;2022-10-31T07:21:58;21.50;;;14.80;;
75459;SDS011;64039;53.060;9.342;2022-10-31T07:24:23;19.90;;;13.68;;
75459;SDS011;64039;53.060;9.342;2022-10-31T07:26:48;20.83;;;14.52;;
75459;SDS011;64039;53.060;9.342;2022-10-31T07:29:14;22.05;;;14.52;;
75459;SDS011;64039;53.060;9.342;2022-10-31T07:31:39;18.15;;;14.60;;
75459;SDS011;64039;53.060;9.342;2022-10-31T07:34:05;21.58;;;16.42;;
75459;SDS011;64039;53.060;9.342;2022-10-31T07:36:30;20.23;;;15.88;;
75459;SDS011;64039;53.060;9.342;2022-10-31T07:38:56;20.35;;;16.17;;
75459;SDS011;64039;53.060;9.342;2022-10-31T07:41:23;19.80;;;14.57;;
75459;SDS011;64039;53.060;9.342;2022-10-31T07:43:50;24.02;;;18.38;;
75459;SDS011;64039;53.060;9.342;2022-10-31T07:46:15;23.05;;;17.90;;
75459;SDS011;64039;53.060;9.342;2022-10-31T07:48:41;22.52;;;17.25;;
75459;SDS011;64039;53.060;9.342;2022-10-31T07:51:06;20.80;;;15.13;;
75459;SDS011;64039;53.060;9.342;2022-10-31T07:53:32;20.30;;;15.00;;
75459;SDS011;64039;53.060;9.342;2022-10-31T07:55:57;18.33;;;14.35;;
75459;SDS011;64039;53.060;9.342;2022-10-31T07:58:22;20.70;;;15.55;;
75459;SDS011;64039;53.060;9.342;2022-10-31T08:00:48;22.52;;;15.75;;
75459;SDS011;64039;53.060;9.342;2022-10-31T08:03:14;25.90;;;17.05;;
75459;SDS011;64039;53.060;9.342;2022-10-31T08:05:42;22.20;;;16.20;;
75459;SDS011;64039;53.060;9.342;2022-10-31T08:08:09;31.92;;;16.73;;
75459;SDS011;64039;53.060;9.342;2022-10-31T08:10:35;25.10;;;16.83;;
75459;SDS011;64039;53.060;9.342;2022-10-31T08:15:31;35.40;;;21.17;;
75459;SDS011;64039;53.060;9.342;2022-10-31T08:17:59;28.92;;;18.65;;
75459;SDS011;64039;53.060;9.342;2022-10-31T08:20:24;27.88;;;17.77;;
75459;SDS011;64039;53.060;9.342;2022-10-31T08:22:53;34.70;;;17.67;;
75459;SDS011;64039;53.060;9.342;2022-10-31T08:25:23;43.38;;;15.77;;
75459;SDS011;64039;53.060;9.342;2022-10-31T08:27:52;28.80;;;20.02;;
75459;SDS011;64039;53.060;9.342;2022-10-31T08:30:19;22.55;;;16.27;;
75459;SDS011;64039;53.060;9.342;2022-10-31T08:32:45;21.13;;;16.35;;
75459;SDS011;64039;53.060;9.342;2022-10-31T08:35:12;22.45;;;15.88;;
75459;SDS011;64039;53.060;9.342;2022-10-31T08:37:37;17.48;;;14.25;;
75459;SDS011;64039;53.060;9.342;2022-10-31T08:40:03;19.77;;;14.23;;
75459;SDS011;64039;53.060;9.342;2022-10-31T08:42:29;19.73;;;14.70;;
75459;SDS011;64039;53.060;9.342;2022-10-31T08:44:55;20.65;;;15.63;;
75459;SDS011;64039;53.060;9.342;2022-10-31T08:47:20;21.60;;;15.88;;
75459;SDS011;64039;53.060;9.342;2022-10-31T08:49:45;22.35;;;15.55;;
75459;SDS011;64039;53.060;9.342;2022-10-31T08:52:11;21.08;;;15.50;;
75459;SDS011;64039;53.060;9.342;2022-10-31T08:54:36;19.52;;;14.20;;
75459;SDS011;64039;53.060;9.342;2022-10-31T08:57:02;19.05;;;14.43;;
75459;SDS011;64039;53.060;9.342;2022-10-31T08:59:27;21.02;;;14.57;;
75459;SDS011;64039;53.060;9.342;2022-10-31T09:01:52;22.08;;;15.57;;
75459;SDS011;64039;53.060;9.342;2022-10-31T09:04:18;24.17;;;15.80;;
75459;SDS011;64039;53.060;9.342;2022-10-31T09:06:43;21.77;;;15.85;;
75459;SDS011;64039;53.060;9.342;2022-10-31T09:09:09;28.80;;;14.70;;
75459;SDS011;64039;53.060;9.342;2022-10-31T09:11:34;34.83;;;16.48;;
75459;SDS011;64039;53.060;9.342;2022-10-31T09:13:59;20.35;;;15.38;;
75459;SDS011;64039;53.060;9.342;2022-10-31T09:16:25;26.17;;;16.75;;
75459;SDS011;64039;53.060;9.342;2022-10-31T09:18:50;26.58;;;14.85;;
75459;SDS011;64039;53.060;9.342;2022-10-31T09:21:15;38.72;;;16.48;;
75459;SDS011;64039;53.060;9.342;2022-10-31T09:23:41;22.23;;;15.82;;
75459;SDS011;64039;53.060;9.342;2022-10-31T09:26:13;22.92;;;16.30;;
75459;SDS011;64039;53.060;9.342;2022-10-31T09:28:38;24.90;;;16.52;;
75459;SDS011;64039;53.060;9.342;2022-10-31T09:31:04;23.73;;;15.88;;
75459;SDS011;64039;53.060;9.342;2022-10-31T09:33:29;25.20;;;16.58;;
75459;SDS011;64039;53.060;9.342;2022-10-31T09:35:55;26.75;;;18.10;;
75459;SDS011;64039;53.060;9.342;2022-10-31T09:38:23;26.25;;;18.13;;
75459;SDS011;64039;53.060;9.342;2022-10-31T09:40:54;28.20;;;17.95;;
75459;SDS011;64039;53.060;9.342;2022-10-31T09:49:42;26.45;;;17.27;;
75459;SDS011;64039;53.060;9.342;2022-10-31T09:52:24;28.58;;;17.48;;
75459;SDS011;64039;53.060;9.342;2022-10-31T09:55:15;27.95;;;17.88;;
75459;SDS011;64039;53.060;9.342;2022-10-31T09:57:44;26.38;;;17.13;;
75459;SDS011;64039;53.060;9.342;2022-10-31T10:00:16;32.03;;;18.77;;
75459;SDS011;64039;53.060;9.342;2022-10-31T10:02:59;25.85;;;17.20;;
75459;SDS011;64039;53.060;9.342;2022-10-31T10:05:33;30.55;;;18.17;;
75459;SDS011;64039;53.060;9.342;2022-10-31T10:08:10;29.27;;;18.65;;
75459;SDS011;64039;53.060;9.342;2022-10-31T10:10:51;31.27;;;18.63;;
75459;SDS011;64039;53.060;9.342;2022-10-31T10:21:53;32.75;;;19.60;;
75459;SDS011;64039;53.060;9.342;2022-10-31T10:27:35;34.67;;;19.40;;
75459;SDS011;64039;53.060;9.342;2022-10-31T10:30:13;31.60;;;19.25;;
75459;SDS011;64039;53.060;9.342;2022-10-31T10:33:14;36.88;;;21.08;;
75459;SDS011;64039;53.060;9.342;2022-10-31T10:35:49;40.35;;;20.58;;
75459;SDS011;64039;53.060;9.342;2022-10-31T10:38:26;33.85;;;19.45;;
75459;SDS011;64039;53.060;9.342;2022-10-31T10:41:19;37.60;;;20.77;;
75459;SDS011;64039;53.060;9.342;2022-10-31T10:43:48;41.30;;;22.63;;
75459;SDS011;64039;53.060;9.342;2022-10-31T10:46:19;38.97;;;21.48;;
75459;SDS011;64039;53.060;9.342;2022-10-31T10:49:32;33.95;;;20.13;;
75459;SDS011;64039;53.060;9.342;2022-10-31T10:52:43;41.03;;;21.90;;
75459;SDS011;64039;53.060;9.342;2022-10-31T10:55:03;34.65;;;20.27;;
75459;SDS011;64039;53.060;9.342;2022-10-31T11:02:59;41.75;;;22.30;;
75459;SDS011;64039;53.060;9.342;2022-10-31T11:08:26;35.35;;;18.83;;
75459;SDS011;64039;53.060;9.342;2022-10-31T11:13:51;31.38;;;17.30;;
75459;SDS011;64039;53.060;9.342;2022-10-31T11:21:54;33.30;;;16.23;;
75459;SDS011;64039;53.060;9.342;2022-10-31T11:24:35;30.20;;;16.15;;
75459;SDS011;64039;53.060;9.342;2022-10-31T11:27:37;33.15;;;16.50;;
75459;SDS011;64039;53.060;9.342;2022-10-31T11:30:03;28.50;;;15.67;;
75459;SDS011;64039;53.060;9.342;2022-10-31T11:32:30;34.22;;;16.80;;
75459;SDS011;64039;53.060;9.342;2022-10-31T11:34:58;31.42;;;17.35;;
75459;SDS011;64039;53.060;9.342;2022-10-31T11:37:29;30.10;;;16.05;;
75459;SDS011;64039;53.060;9.342;2022-10-31T11:40:00;33.78;;;17.90;;
75459;SDS011;64039;53.060;9.342;2022-10-31T11:42:30;32.67;;;17.90;;
75459;SDS011;64039;53.060;9.342;2022-10-31T11:45:06;34.33;;;16.67;;
75459;SDS011;64039;53.060;9.342;2022-10-31T11:47:41;35.17;;;18.38;;
75459;SDS011;64039;53.060;9.342;2022-10-31T11:50:12;32.10;;;17.63;;
75459;SDS011;64039;53.060;9.342;2022-10-31T11:52:45;33.20;;;16.27;;
75459;SDS011;64039;53.060;9.342;2022-10-31T11:57:46;30.40;;;15.82;;
75459;SDS011;64039;53.060;9.342;2022-10-31T12:00:21;27.75;;;14.65;;
75459;SDS011;64039;53.060;9.342;2022-10-31T12:02:48;28.75;;;15.57;;
75459;SDS011;64039;53.060;9.342;2022-10-31T12:05:18;29.38;;;15.13;;
75459;SDS011;64039;53.060;9.342;2022-10-31T12:07:45;32.75;;;15.50;;
75459;SDS011;64039;53.060;9.342;2022-10-31T12:10:10;28.25;;;15.15;;
75459;SDS011;64039;53.060;9.342;2022-10-31T12:12:40;29.55;;;14.70;;
75459;SDS011;64039;53.060;9.342;2022-10-31T12:29:00;26.95;;;15.15;;
75459;SDS011;64039;53.060;9.342;2022-10-31T12:36:49;25.90;;;14.55;;
75459;SDS011;64039;53.060;9.342;2022-10-31T12:42:20;23.13;;;13.18;;
75459;SDS011;64039;53.060;9.342;2022-10-31T12:47:50;22.92;;;13.88;;
75459;SDS011;64039;53.060;9.342;2022-10-31T12:53:07;23.17;;;13.25;;
75459;SDS011;64039;53.060;9.342;2022-10-31T12:58:36;31.20;;;15.70;;
75459;SDS011;64039;53.060;9.342;2022-10-31T13:03:47;28.05;;;14.18;;
75459;SDS011;64039;53.060;9.342;2022-10-31T13:06:24;31.02;;;16.30;;
75459;SDS011;64039;53.060;9.342;2022-10-31T13:09:02;28.27;;;15.50;;
75459;SDS011;64039;53.060;9.342;2022-10-31T13:16:48;27.33;;;14.75;;
75459;SDS011;64039;53.060;9.342;2022-10-31T13:24:44;29.05;;;14.48;;
75459;SDS011;64039;53.060;9.342;2022-10-31T13:27:19;26.67;;;14.07;;
75459;SDS011;64039;53.060;9.342;2022-10-31T13:30:05;28.20;;;14.52;;
75459;SDS011;64039;53.060;9.342;2022-10-31T13:32:44;27.05;;;13.85;;
75459;SDS011;64039;53.060;9.342;2022-10-31T13:35:28;30.73;;;13.60;;
75459;SDS011;64039;53.060;9.342;2022-10-31T13:40:37;26.38;;;13.82;;
75459;SDS011;64039;53.060;9.342;2022-10-31T13:46:20;26.55;;;13.02;;
75459;SDS011;64039;53.060;9.342;2022-10-31T13:52:04;23.42;;;12.52;;
75459;SDS011;64039;53.060;9.342;2022-10-31T13:54:32;23.75;;;12.52;;
75459;SDS011;64039;53.060;9.342;2022-10-31T13:56:59;21.27;;;12.27;;
75459;SDS011;64039;53.060;9.342;2022-10-31T13:59:28;27.98;;;13.00;;
75459;SDS011;64039;53.060;9.342;2022-10-31T14:01:57;25.20;;;12.50;;
75459;SDS011;64039;53.060;9.342;2022-10-31T14:07:07;24.33;;;11.98;;
75459;SDS011;64039;53.060;9.342;2022-10-31T14:09:51;26.90;;;12.70;;
75459;SDS011;64039;53.060;9.342;2022-10-31T14:12:29;22.92;;;11.45;;
75459;SDS011;64039;53.060;9.342;2022-10-31T14:15:04;24.33;;;12.63;;
75459;SDS011;64039;53.060;9.342;2022-10-31T14:17:50;22.48;;;12.43;;
75459;SDS011;64039;53.060;9.342;2022-10-31T14:20:21;22.88;;;12.38;;
75459;SDS011;64039;53.060;9.342;2022-10-31T14:22:51;20.98;;;12.10;;
75459;SDS011;64039;53.060;9.342;2022-10-31T14:28:20;18.77;;;11.10;;
75459;SDS011;64039;53.060;9.342;2022-10-31T14:30:54;23.05;;;10.63;;
75459;SDS011;64039;53.060;9.342;2022-10-31T14:33:22;24.75;;;12.60;;
75459;SDS011;64039;53.060;9.342;2022-10-31T14:36:00;22.05;;;12.30;;
75459;SDS011;64039;53.060;9.342;2022-10-31T14:38:35;22.90;;;13.55;;
75459;SDS011;64039;53.060;9.342;2022-10-31T14:47:19;22.95;;;11.93;;
75459;SDS011;64039;53.060;9.342;2022-10-31T14:52:38;24.80;;;12.77;;
75459;SDS011;64039;53.060;9.342;2022-10-31T14:55:06;24.10;;;11.70;;
75459;SDS011;64039;53.060;9.342;2022-10-31T14:57:37;18.90;;;10.55;;
75459;SDS011;64039;53.060;9.342;2022-10-31T15:00:07;19.52;;;10.35;;
75459;SDS011;64039;53.060;9.342;2022-10-31T15:05:17;20.58;;;11.00;;
75459;SDS011;64039;53.060;9.342;2022-10-31T15:07:56;18.63;;;9.75;;
75459;SDS011;64039;53.060;9.342;2022-10-31T15:10:32;22.35;;;10.88;;
75459;SDS011;64039;53.060;9.342;2022-10-31T15:13:08;21.67;;;10.38;;
75459;SDS011;64039;53.060;9.342;2022-10-31T15:15:44;20.50;;;10.13;;
75459;SDS011;64039;53.060;9.342;2022-10-31T15:18:13;20.15;;;10.00;;
75459;SDS011;64039;53.060;9.342;2022-10-31T15:23:10;19.48;;;10.23;;
75459;SDS011;64039;53.060;9.342;2022-10-31T15:25:40;20.13;;;10.45;;
75459;SDS011;64039;53.060;9.342;2022-10-31T15:28:13;21.23;;;10.25;;
75459;SDS011;64039;53.060;9.342;2022-10-31T15:30:48;19.50;;;9.25;;
75459;SDS011;64039;53.060;9.342;2022-10-31T15:33:20;24.10;;;10.15;;
75459;SDS011;64039;53.060;9.342;2022-10-31T15:35:58;17.27;;;9.43;;
75459;SDS011;64039;53.060;9.342;2022-10-31T15:38:25;17.42;;;9.10;;
75459;SDS011;64039;53.060;9.342;2022-10-31T15:41:01;21.13;;;10.32;;
75459;SDS011;64039;53.060;9.342;2022-10-31T15:43:44;19.52;;;9.60;;
75459;SDS011;64039;53.060;9.342;2022-10-31T15:46:09;21.20;;;9.85;;
75459;SDS011;64039;53.060;9.342;2022-10-31T15:48:35;18.77;;;9.55;;
75459;SDS011;64039;53.060;9.342;2022-10-31T15:51:03;18.02;;;9.18;;
75459;SDS011;64039;53.060;9.342;2022-10-31T15:53:36;17.90;;;9.15;;
75459;SDS011;64039;53.060;9.342;2022-10-31T15:56:18;17.15;;;9.15;;
75459;SDS011;64039;53.060;9.342;2022-10-31T16:01:23;19.60;;;9.25;;
75459;SDS011;64039;53.060;9.342;2022-10-31T16:04:19;19.40;;;8.80;;
75459;SDS011;64039;53.060;9.342;2022-10-31T16:06:56;17.88;;;8.75;;
75459;SDS011;64039;53.060;9.342;2022-10-31T16:09:25;14.70;;;8.57;;
75459;SDS011;64039;53.060;9.342;2022-10-31T16:11:51;15.32;;;7.65;;
75459;SDS011;64039;53.060;9.342;2022-10-31T16:14:17;16.60;;;7.80;;
75459;SDS011;64039;53.060;9.342;2022-10-31T16:16:48;15.90;;;7.75;;
75459;SDS011;64039;53.060;9.342;2022-10-31T16:19:21;14.85;;;8.07;;
75459;SDS011;64039;53.060;9.342;2022-10-31T16:24:25;11.73;;;6.93;;
75459;SDS011;64039;53.060;9.342;2022-10-31T16:26:54;11.68;;;6.55;;
75459;SDS011;64039;53.060;9.342;2022-10-31T16:29:43;11.00;;;7.05;;
75459;SDS011;64039;53.060;9.342;2022-10-31T16:35:32;10.63;;;5.97;;
75459;SDS011;64039;53.060;9.342;2022-10-31T16:37:59;9.68;;;5.75;;
75459;SDS011;64039;53.060;9.342;2022-10-31T16:40:25;10.95;;;6.68;;
75459;SDS011;64039;53.060;9.342;2022-10-31T16:42:51;11.68;;;6.13;;
75459;SDS011;64039;53.060;9.342;2022-10-31T16:45:23;11.15;;;5.97;;
75459;SDS011;64039;53.060;9.342;2022-10-31T16:47:50;9.82;;;5.65;;
75459;SDS011;64039;53.060;9.342;2022-10-31T16:52:44;10.65;;;5.82;;
75459;SDS011;64039;53.060;9.342;2022-10-31T16:55:12;9.52;;;5.43;;
75459;SDS011;64039;53.060;9.342;2022-10-31T16:57:40;9.25;;;5.30;;
75459;SDS011;64039;53.060;9.342;2022-10-31T17:00:12;10.68;;;5.38;;
75459;SDS011;64039;53.060;9.342;2022-10-31T17:02:42;13.50;;;5.65;;
75459;SDS011;64039;53.060;9.342;2022-10-31T17:05:12;12.63;;;6.95;;
75459;SDS011;64039;53.060;9.342;2022-10-31T17:07:39;18.98;;;9.40;;